createdAt,value
2023-04-20T00:05:07.440Z,66.38
2023-04-20T00:08:10.356Z,66.09
2023-04-20T00:11:12.874Z,65.96
2023-04-20T00:14:18.402Z,65.81
2023-04-20T00:17:20.912Z,65.84
2023-04-20T00:20:24.725Z,65.75
2023-04-20T00:23:27.782Z,65.70
2023-04-20T00:26:31.282Z,65.68
2023-04-20T00:29:33.670Z,65.65
2023-04-20T00:32:35.741Z,65.66
2023-04-20T00:35:40.430Z,65.56
2023-04-20T00:38:45.190Z,65.51
2023-04-20T00:41:47.258Z,65.42
2023-04-20T00:44:50.276Z,65.34
2023-04-20T00:47:54.073Z,65.47
2023-04-20T00:50:56.670Z,65.49
2023-04-20T00:54:01.036Z,65.60
2023-04-20T00:57:04.755Z,65.69
2023-04-20T01:00:07.931Z,65.79
2023-04-20T01:03:10.451Z,65.93
2023-04-20T01:06:17.327Z,66.08
2023-04-20T01:09:25.747Z,66.13
2023-04-20T01:12:28.887Z,66.22
2023-04-20T01:15:32.021Z,66.39
2023-04-20T01:18:46.894Z,66.49
2023-04-20T01:21:49.946Z,66.65
2023-04-20T01:24:52.540Z,66.94
2023-04-20T01:27:55.690Z,67.17
2023-04-20T01:30:58.930Z,67.35
2023-04-20T01:34:01.286Z,67.60
2023-04-20T01:37:08.273Z,67.81
2023-04-20T01:40:14.404Z,67.99
2023-04-20T01:43:17.776Z,68.24
2023-04-20T01:46:20.810Z,68.40
2023-04-20T01:49:22.732Z,68.57
2023-04-20T01:52:24.995Z,68.71
2023-04-20T01:55:27.709Z,68.95
2023-04-20T01:58:30.044Z,68.97
2023-04-20T02:04:47.442Z,69.25
2023-04-20T02:07:54.363Z,69.17
2023-04-20T02:10:58.258Z,69.38
2023-04-20T02:14:01.853Z,69.46
2023-04-20T02:17:05.391Z,69.56
2023-04-20T02:20:11.090Z,69.64
2023-04-20T02:23:17.203Z,69.72
2023-04-20T02:26:21.231Z,69.79
2023-04-20T02:29:25.170Z,69.65
2023-04-20T02:32:29.957Z,69.50
2023-04-20T02:35:33.668Z,69.33
2023-04-20T02:38:38.667Z,69.09
2023-04-20T02:41:46.770Z,68.79
2023-04-20T02:44:50.750Z,68.82
2023-04-20T02:47:56.127Z,68.61
2023-04-20T02:51:01.580Z,68.36
2023-04-20T02:54:10.691Z,68.15
2023-04-20T02:57:15.883Z,67.86
2023-04-20T03:00:19.991Z,67.64
2023-04-20T03:03:34.569Z,67.41
2023-04-20T03:06:40.975Z,67.27
2023-04-20T03:09:47.052Z,67.21
2023-04-20T03:12:52.024Z,67.10
2023-04-20T03:16:14.051Z,66.92
2023-04-20T03:19:21.310Z,66.63
2023-04-20T03:22:25.077Z,66.30
2023-04-20T03:25:31.276Z,66.05
2023-04-20T03:28:35.558Z,65.68
2023-04-20T03:31:39.019Z,65.34
2023-04-20T03:34:43.211Z,64.84
2023-04-20T03:37:46.485Z,64.61
2023-04-20T03:40:50.411Z,64.55
2023-04-20T03:43:54.206Z,64.38
2023-04-20T03:47:00.829Z,64.21
2023-04-20T03:50:05.106Z,63.98
2023-04-20T03:53:08.782Z,63.88
2023-04-20T03:56:12.971Z,63.66
2023-04-20T03:59:16.526Z,63.64
2023-04-20T04:05:06.971Z,63.43
2023-04-20T04:08:09.204Z,63.06
2023-04-20T04:11:11.799Z,62.85
2023-04-20T04:14:16.382Z,62.69
2023-04-20T04:17:18.485Z,62.64
2023-04-20T04:20:20.680Z,62.57
2023-04-20T04:23:24.466Z,62.71
2023-04-20T04:26:55.951Z,62.79
2023-04-20T04:29:58.856Z,62.94
2023-04-20T04:33:04.236Z,62.99
2023-04-20T04:36:11.050Z,63.06
2023-04-20T04:39:18.736Z,63.25
2023-04-20T04:42:28.570Z,63.44
2023-04-20T04:45:32.505Z,63.74
2023-04-20T04:48:36.102Z,63.92
2023-04-20T04:51:50.198Z,64.28
2023-04-20T04:54:52.111Z,64.54
2023-04-20T04:57:56.960Z,64.95
2023-04-20T05:01:00.659Z,65.85
2023-04-20T05:04:03.261Z,66.71
2023-04-20T05:07:09.931Z,67.49
2023-04-20T05:10:15.520Z,67.98
2023-04-20T05:13:17.628Z,69.27
2023-04-20T05:16:19.620Z,70.82
2023-04-20T05:19:21.547Z,72.54
2023-04-20T05:22:25.692Z,74.46
2023-04-20T05:25:27.602Z,76.02
2023-04-20T05:28:29.669Z,77.52
2023-04-20T05:31:32.940Z,78.73
2023-04-20T05:34:36.208Z,80.30
2023-04-20T05:37:38.161Z,81.98
2023-04-20T05:40:40.718Z,84.29
2023-04-20T05:43:43.334Z,87.01
2023-04-20T05:46:57.292Z,89.80
2023-04-20T05:50:00.894Z,93.45
2023-04-20T05:53:04.645Z,97.06
2023-04-20T05:56:10.916Z,99.87
2023-04-20T05:59:14.955Z,100.00
2023-04-20T06:05:13.635Z,100.00
2023-04-20T06:08:18.752Z,100.00
2023-04-20T06:11:27.330Z,100.00
2023-04-20T06:14:33.451Z,100.00
2023-04-20T06:17:40.640Z,100.00
2023-04-20T06:20:43.861Z,100.00
2023-04-20T06:23:46.721Z,100.00
2023-04-20T06:26:48.608Z,100.00
2023-04-20T06:29:51.923Z,100.00
2023-04-20T06:32:56.166Z,100.00
2023-04-20T06:35:58.745Z,100.00
2023-04-20T06:39:04.617Z,100.00
2023-04-20T06:42:09.370Z,100.00
2023-04-20T06:45:13.572Z,100.00
2023-04-20T06:48:31.547Z,100.00
2023-04-20T06:51:35.780Z,100.00
2023-04-20T06:54:39.587Z,100.00
2023-04-20T06:57:43.386Z,100.00
2023-04-20T07:00:46.767Z,100.00
2023-04-20T07:03:50.708Z,100.00
2023-04-20T07:06:54.347Z,100.00
2023-04-20T10:05:12.243Z,100.00
2023-04-20T10:08:16.672Z,100.00
2023-04-20T10:11:40.653Z,100.00
2023-04-20T10:14:55.789Z,100.00
2023-04-20T10:17:58.621Z,100.00
2023-04-20T10:21:10.471Z,100.00
2023-04-20T10:24:29.910Z,100.00
2023-04-20T10:27:36.830Z,100.00
2023-04-20T10:30:50.818Z,100.00
2023-04-20T10:33:59.047Z,100.00
2023-04-20T10:37:12.223Z,100.00
2023-04-20T10:40:26.055Z,100.00
2023-04-20T10:43:41.995Z,100.00
2023-04-20T10:46:54.768Z,100.00
2023-04-20T10:50:12.805Z,100.00
2023-04-20T10:53:23.344Z,100.00
2023-04-20T10:56:26.702Z,100.00
2023-04-20T10:59:29.957Z,100.00
2023-04-20T11:02:37.153Z,100.00
2023-04-20T11:05:39.550Z,100.00
2023-04-20T11:08:43.857Z,100.00
2023-04-20T11:12:07.705Z,100.00
2023-04-20T11:15:11.305Z,100.00
2023-04-20T11:18:14.532Z,100.00
2023-04-20T11:21:19.145Z,100.00
2023-04-20T11:24:25.008Z,100.00
2023-04-20T11:27:27.448Z,100.00
2023-04-20T11:30:40.719Z,100.00
2023-04-20T11:33:42.684Z,100.00
2023-04-20T11:36:46.102Z,100.00
2023-04-20T11:40:24.044Z,100.00
2023-04-20T11:43:35.508Z,100.00
2023-04-20T11:46:44.640Z,100.00
2023-04-20T11:49:46.389Z,100.00
2023-04-20T11:52:55.131Z,100.00
2023-04-20T11:56:00.298Z,100.00
2023-04-20T11:59:03.595Z,100.00
2023-04-20T12:02:07.882Z,100.00
2023-04-20T12:05:11.867Z,100.00
2023-04-20T12:08:18.010Z,100.00
2023-04-20T12:11:21.554Z,100.00
2023-04-20T12:14:27.139Z,100.00
2023-04-20T12:17:29.230Z,100.00
2023-04-20T12:20:32.104Z,100.00
2023-04-20T12:23:37.887Z,100.00
2023-04-20T12:26:40.201Z,100.00
2023-04-20T12:29:48.324Z,100.00
2023-04-20T12:32:52.748Z,100.00
2023-04-20T12:35:54.689Z,100.00
2023-04-20T12:38:57.190Z,100.00
2023-04-20T12:41:59.543Z,100.00
2023-04-20T12:45:02.899Z,100.00
2023-04-20T12:48:08.747Z,100.00
2023-04-20T12:51:13.577Z,100.00
2023-04-20T12:54:15.781Z,100.00
2023-04-20T12:57:19.750Z,100.00
2023-04-20T13:00:25.526Z,100.00
2023-04-20T13:03:33.234Z,100.00
2023-04-20T13:06:35.969Z,100.00
2023-04-20T13:09:38.570Z,100.00
2023-04-20T13:12:41.956Z,100.00
2023-04-20T13:15:44.901Z,100.00
2023-04-20T13:18:47.429Z,100.00
2023-04-20T13:21:49.343Z,100.00
2023-04-20T13:24:51.652Z,100.00
2023-04-20T13:27:55.145Z,100.00
2023-04-20T13:30:59.775Z,100.00
2023-04-20T13:34:07.021Z,100.00
2023-04-20T13:37:17.435Z,100.00
2023-04-20T13:40:21.699Z,100.00
2023-04-20T13:43:25.606Z,100.00
2023-04-20T13:46:30.806Z,100.00
2023-04-20T13:49:33.666Z,100.00
2023-04-20T13:52:36.548Z,100.00
2023-04-20T13:55:40.666Z,100.00
2023-04-20T13:58:43.962Z,100.00
2023-04-20T14:05:09.837Z,100.00
2023-04-20T14:08:13.238Z,100.00
2023-04-20T14:11:16.435Z,100.00
2023-04-20T14:14:19.269Z,100.00
2023-04-20T14:17:24.412Z,100.00
2023-04-20T14:20:29.405Z,100.00
2023-04-20T14:23:42.505Z,100.00
2023-04-20T14:26:51.917Z,100.00
2023-04-20T14:29:57.094Z,100.00
2023-04-20T14:33:02.114Z,100.00
2023-04-20T14:36:14.442Z,100.00
2023-04-20T14:39:20.601Z,100.00
2023-04-20T14:42:29.341Z,100.00
2023-04-20T14:45:35.696Z,100.00
2023-04-20T14:48:47.277Z,100.00
2023-04-20T14:51:55.618Z,100.00
2023-04-20T14:54:57.943Z,100.00
2023-04-20T14:58:04.253Z,100.00
2023-04-20T15:01:08.228Z,100.00
2023-04-20T15:04:13.134Z,100.00
2023-04-20T15:07:16.495Z,100.00
2023-04-20T15:10:23.726Z,100.00
2023-04-20T15:13:32.466Z,100.00
2023-04-20T15:16:39.310Z,100.00
2023-04-20T15:19:51.026Z,100.00
2023-04-20T15:22:55.080Z,100.00
2023-04-20T15:25:58.066Z,100.00
2023-04-20T15:29:00.213Z,100.00
2023-04-20T15:32:05.223Z,100.00
2023-04-20T15:35:10.515Z,100.00
2023-04-20T15:38:12.595Z,100.00
2023-04-20T15:41:17.004Z,100.00
2023-04-20T15:44:22.815Z,100.00
2023-04-20T15:47:31.878Z,100.00
2023-04-20T15:50:42.171Z,100.00
2023-04-20T15:53:50.408Z,100.00
2023-04-20T15:56:55.430Z,100.00
2023-04-20T15:59:59.834Z,100.00
2023-04-20T16:03:04.004Z,100.00
2023-04-20T16:06:06.759Z,100.00
2023-04-20T16:09:11.821Z,100.00
2023-04-20T16:12:27.120Z,100.00
2023-04-20T16:15:43.092Z,100.00
2023-04-20T16:18:54.559Z,100.00
2023-04-20T16:22:21.306Z,100.00
2023-04-20T16:25:26.091Z,100.00
2023-04-20T16:28:33.477Z,100.00
2023-04-20T16:31:40.060Z,100.00
2023-04-20T16:34:43.555Z,100.00
2023-04-20T16:37:50.224Z,100.00
2023-04-20T16:40:55.157Z,100.00
2023-04-20T16:44:04.363Z,100.00
2023-04-20T16:47:07.663Z,100.00
2023-04-20T16:50:12.005Z,100.00
2023-04-20T16:53:17.382Z,100.00
2023-04-20T16:56:20.734Z,100.00
2023-04-20T16:59:25.614Z,100.00
2023-04-20T17:02:32.854Z,100.00
2023-04-20T17:05:41.876Z,100.00
2023-04-20T17:08:47.703Z,100.00
2023-04-20T17:11:56.106Z,100.00
2023-04-20T17:15:02.135Z,100.00
2023-04-20T17:18:07.153Z,100.00
2023-04-20T17:21:12.249Z,100.00
2023-04-20T17:24:16.521Z,100.00
2023-04-20T17:27:25.357Z,100.00
2023-04-20T17:30:28.047Z,100.00
2023-04-20T17:33:30.629Z,100.00
2023-04-20T17:36:33.786Z,100.00
2023-04-20T17:39:36.964Z,100.00
2023-04-20T17:42:39.169Z,100.00
2023-04-20T17:45:47.097Z,100.00
2023-04-20T17:48:49.143Z,100.00
2023-04-20T17:51:54.202Z,100.00
2023-04-20T17:55:01.879Z,100.00
2023-04-20T17:58:04.563Z,100.00
2023-04-20T18:05:09.493Z,100.00
2023-04-20T18:08:12.989Z,100.00
2023-04-20T18:11:15.621Z,100.00
2023-04-20T18:14:20.723Z,100.00
2023-04-20T18:17:23.480Z,100.00
2023-04-20T18:20:29.950Z,100.00
2023-04-20T18:23:35.197Z,100.00
2023-04-20T18:26:38.272Z,100.00
2023-04-20T18:29:43.675Z,100.00
2023-04-20T18:32:46.726Z,100.00
2023-04-20T18:35:50.379Z,100.00
2023-04-20T18:38:54.822Z,100.00
2023-04-20T18:42:01.723Z,100.00
2023-04-20T18:45:07.555Z,100.00
2023-04-20T18:48:20.856Z,100.00
2023-04-20T18:51:35.885Z,100.00
2023-04-20T18:54:49.214Z,100.00
2023-04-20T18:57:51.670Z,100.00
2023-04-20T19:00:56.785Z,100.00
2023-04-20T19:03:59.605Z,100.00
2023-04-20T19:07:02.480Z,100.00
2023-04-20T19:10:18.520Z,100.00
2023-04-20T19:13:24.705Z,100.00
2023-04-20T19:16:56.131Z,100.00
2023-04-20T19:20:13.715Z,100.00
2023-04-20T19:23:25.055Z,100.00
2023-04-20T19:26:48.728Z,100.00
2023-04-20T19:30:04.363Z,100.00
2023-04-20T19:33:31.966Z,100.00
2023-04-20T19:36:42.001Z,100.00
2023-04-20T19:40:22.037Z,100.00
2023-04-20T19:43:58.549Z,100.00
2023-04-20T19:47:23.616Z,100.00
2023-04-20T19:50:48.375Z,100.00
2023-04-20T19:54:03.854Z,100.00
2023-04-20T19:57:27.377Z,100.00
2023-04-20T20:00:33.947Z,100.00
2023-04-20T20:04:10.734Z,100.00
2023-04-20T20:07:13.520Z,100.00
2023-04-20T20:10:17.418Z,100.00
2023-04-20T20:13:23.431Z,100.00
2023-04-20T20:16:30.098Z,100.00
2023-04-20T20:19:32.129Z,100.00
2023-04-20T20:22:43.688Z,100.00
2023-04-20T20:25:47.728Z,100.00
2023-04-20T20:28:52.755Z,100.00
2023-04-20T20:31:57.695Z,100.00
2023-04-20T20:35:00.178Z,100.00
2023-04-20T20:38:08.174Z,100.00
2023-04-20T20:41:11.101Z,100.00
2023-04-20T20:44:14.069Z,100.00
2023-04-20T20:47:16.687Z,100.00
2023-04-20T20:50:23.005Z,100.00
2023-04-20T20:53:25.621Z,100.00
2023-04-20T20:56:35.217Z,100.00
2023-04-20T20:59:37.357Z,100.00
2023-04-20T21:02:43.146Z,100.00
2023-04-20T21:05:52.230Z,100.00
2023-04-20T21:08:54.983Z,100.00
2023-04-20T21:11:59.703Z,100.00
2023-04-20T21:15:05.972Z,100.00
2023-04-20T21:18:08.965Z,100.00
2023-04-20T21:21:15.997Z,100.00
2023-04-20T21:24:20.108Z,100.00
2023-04-20T21:27:22.767Z,100.00
2023-04-20T21:30:30.008Z,100.00
2023-04-20T21:33:36.951Z,100.00
2023-04-20T21:36:42.922Z,100.00
2023-04-20T21:39:46.533Z,100.00
2023-04-20T21:42:53.687Z,100.00
2023-04-20T21:46:00.268Z,100.00
2023-04-20T21:49:03.088Z,100.00
2023-04-20T21:52:12.774Z,100.00
2023-04-20T21:55:16.890Z,100.00
2023-04-20T21:58:19.247Z,100.00
2023-04-20T22:04:49.976Z,100.00
2023-04-20T22:07:53.687Z,100.00
2023-04-20T22:10:59.080Z,100.00
2023-04-20T22:14:07.996Z,100.00
2023-04-20T22:17:12.034Z,100.00
2023-04-20T22:20:19.412Z,100.00
2023-04-20T22:23:23.426Z,100.00
2023-04-20T22:26:29.335Z,100.00
2023-04-20T22:29:32.783Z,100.00
2023-04-20T22:32:38.835Z,100.00
2023-04-20T22:35:43.054Z,100.00
2023-04-20T22:38:49.401Z,100.00
2023-04-20T22:41:53.777Z,100.00
2023-04-20T22:44:57.731Z,100.00
2023-04-20T22:48:02.439Z,100.00
2023-04-20T22:51:06.605Z,100.00
2023-04-20T22:54:11.979Z,100.00
2023-04-20T22:57:16.197Z,100.00
2023-04-20T23:00:21.938Z,100.00
2023-04-20T23:03:29.647Z,100.00
2023-04-20T23:06:35.299Z,100.00
2023-04-20T23:09:41.457Z,100.00
2023-04-20T23:12:47.742Z,100.00
2023-04-20T23:15:51.272Z,100.00
2023-04-20T23:18:55.772Z,100.00
2023-04-20T23:22:01.506Z,100.00
2023-04-20T23:25:10.340Z,100.00
2023-04-20T23:28:24.460Z,100.00
2023-04-20T23:31:31.827Z,100.00
2023-04-20T23:34:37.223Z,100.00
2023-04-20T23:37:41.436Z,100.00
2023-04-20T23:40:46.521Z,100.00
2023-04-20T23:43:50.474Z,100.00
2023-04-20T23:46:56.360Z,100.00
2023-04-20T23:49:59.687Z,100.00
2023-04-20T23:53:06.413Z,100.00
2023-04-20T23:56:15.113Z,100.00
2023-04-20T23:59:19.788Z,100.00
